sensor_id;sensor_type;location;lat;lon;timestamp;P1;durP1;ratioP1;P2;durP2;ratioP2
12328;SDS011;6230;52.390;10.256;2023-02-15T00:01:15;52.03;;;33.60;;
12328;SDS011;6230;52.390;10.256;2023-02-15T00:03:41;49.50;;;31.37;;
12328;SDS011;6230;52.390;10.256;2023-02-15T00:06:06;46.40;;;31.47;;
12328;SDS011;6230;52.390;10.256;2023-02-15T00:08:32;48.33;;;32.77;;
12328;SDS011;6230;52.390;10.256;2023-02-15T00:11:31;47.00;;;31.00;;
12328;SDS011;6230;52.390;10.256;2023-02-15T00:14:05;45.17;;;30.23;;
12328;SDS011;6230;52.390;10.256;2023-02-15T00:16:35;44.30;;;30.07;;
12328;SDS011;6230;52.390;10.256;2023-02-15T00:19:02;43.17;;;28.20;;
12328;SDS011;6230;52.390;10.256;2023-02-15T00:21:29;46.63;;;28.90;;
12328;SDS011;6230;52.390;10.256;2023-02-15T00:23:56;46.73;;;29.03;;
12328;SDS011;6230;52.390;10.256;2023-02-15T00:26:23;45.47;;;29.67;;
12328;SDS011;6230;52.390;10.256;2023-02-15T00:28:48;40.80;;;28.20;;
12328;SDS011;6230;52.390;10.256;2023-02-15T00:31:14;42.03;;;28.20;;
12328;SDS011;6230;52.390;10.256;2023-02-15T00:33:40;37.37;;;26.10;;
12328;SDS011;6230;52.390;10.256;2023-02-15T00:36:06;39.90;;;25.40;;
12328;SDS011;6230;52.390;10.256;2023-02-15T00:38:33;37.30;;;24.93;;
12328;SDS011;6230;52.390;10.256;2023-02-15T00:41:00;41.90;;;26.83;;
12328;SDS011;6230;52.390;10.256;2023-02-15T00:43:28;40.27;;;28.57;;
12328;SDS011;6230;52.390;10.256;2023-02-15T00:45:55;39.23;;;26.33;;
12328;SDS011;6230;52.390;10.256;2023-02-15T00:48:21;38.17;;;25.37;;
12328;SDS011;6230;52.390;10.256;2023-02-15T00:50:48;37.10;;;23.93;;
12328;SDS011;6230;52.390;10.256;2023-02-15T00:53:15;36.90;;;23.73;;
12328;SDS011;6230;52.390;10.256;2023-02-15T00:55:41;33.70;;;22.50;;
12328;SDS011;6230;52.390;10.256;2023-02-15T00:58:07;32.93;;;22.40;;
12328;SDS011;6230;52.390;10.256;2023-02-15T01:00:34;33.17;;;22.93;;
12328;SDS011;6230;52.390;10.256;2023-02-15T01:03:00;32.77;;;23.17;;
12328;SDS011;6230;52.390;10.256;2023-02-15T01:05:26;38.77;;;25.57;;
12328;SDS011;6230;52.390;10.256;2023-02-15T01:07:51;36.40;;;25.50;;
12328;SDS011;6230;52.390;10.256;2023-02-15T01:10:17;41.97;;;28.03;;
12328;SDS011;6230;52.390;10.256;2023-02-15T01:12:42;40.80;;;27.30;;
12328;SDS011;6230;52.390;10.256;2023-02-15T01:15:08;44.43;;;28.87;;
12328;SDS011;6230;52.390;10.256;2023-02-15T01:17:34;44.37;;;28.80;;
12328;SDS011;6230;52.390;10.256;2023-02-15T01:20:00;46.43;;;29.07;;
12328;SDS011;6230;52.390;10.256;2023-02-15T01:22:25;42.93;;;29.17;;
12328;SDS011;6230;52.390;10.256;2023-02-15T01:24:51;41.03;;;28.13;;
12328;SDS011;6230;52.390;10.256;2023-02-15T01:27:17;48.63;;;31.43;;
12328;SDS011;6230;52.390;10.256;2023-02-15T01:29:43;43.30;;;28.50;;
12328;SDS011;6230;52.390;10.256;2023-02-15T01:32:08;44.33;;;27.87;;
12328;SDS011;6230;52.390;10.256;2023-02-15T01:34:34;44.80;;;30.07;;
12328;SDS011;6230;52.390;10.256;2023-02-15T01:37:00;45.37;;;30.13;;
12328;SDS011;6230;52.390;10.256;2023-02-15T01:39:25;43.80;;;28.53;;
12328;SDS011;6230;52.390;10.256;2023-02-15T01:41:51;44.77;;;29.67;;
12328;SDS011;6230;52.390;10.256;2023-02-15T01:44:40;44.00;;;27.60;;
12328;SDS011;6230;52.390;10.256;2023-02-15T01:47:11;40.17;;;28.07;;
12328;SDS011;6230;52.390;10.256;2023-02-15T01:49:40;41.00;;;28.53;;
12328;SDS011;6230;52.390;10.256;2023-02-15T01:52:08;41.97;;;28.33;;
12328;SDS011;6230;52.390;10.256;2023-02-15T01:54:38;41.50;;;27.73;;
12328;SDS011;6230;52.390;10.256;2023-02-15T01:57:07;42.23;;;28.40;;
12328;SDS011;6230;52.390;10.256;2023-02-15T01:59:35;44.03;;;28.57;;
12328;SDS011;6230;52.390;10.256;2023-02-15T02:02:03;41.40;;;28.87;;
12328;SDS011;6230;52.390;10.256;2023-02-15T02:04:34;40.07;;;27.10;;
12328;SDS011;6230;52.390;10.256;2023-02-15T02:07:05;43.47;;;26.93;;
12328;SDS011;6230;52.390;10.256;2023-02-15T02:09:31;42.87;;;28.53;;
12328;SDS011;6230;52.390;10.256;2023-02-15T02:11:57;41.37;;;27.27;;
12328;SDS011;6230;52.390;10.256;2023-02-15T02:14:23;44.17;;;28.17;;
12328;SDS011;6230;52.390;10.256;2023-02-15T02:22:24;38.50;;;25.67;;
12328;SDS011;6230;52.390;10.256;2023-02-15T02:25:01;40.63;;;26.07;;
12328;SDS011;6230;52.390;10.256;2023-02-15T02:33:48;40.50;;;25.27;;
12328;SDS011;6230;52.390;10.256;2023-02-15T02:42:00;35.50;;;24.33;;
12328;SDS011;6230;52.390;10.256;2023-02-15T02:44:41;35.90;;;24.93;;
12328;SDS011;6230;52.390;10.256;2023-02-15T02:47:13;36.40;;;25.10;;
12328;SDS011;6230;52.390;10.256;2023-02-15T02:49:43;43.90;;;23.77;;
12328;SDS011;6230;52.390;10.256;2023-02-15T02:55:18;29.57;;;21.87;;
12328;SDS011;6230;52.390;10.256;2023-02-15T02:58:02;28.27;;;21.37;;
12328;SDS011;6230;52.390;10.256;2023-02-15T03:00:29;28.70;;;20.60;;
12328;SDS011;6230;52.390;10.256;2023-02-15T03:03:01;28.93;;;21.20;;
12328;SDS011;6230;52.390;10.256;2023-02-15T03:05:31;28.40;;;20.03;;
12328;SDS011;6230;52.390;10.256;2023-02-15T03:08:00;28.90;;;21.10;;
12328;SDS011;6230;52.390;10.256;2023-02-15T03:10:31;29.60;;;20.33;;
12328;SDS011;6230;52.390;10.256;2023-02-15T03:12:59;32.00;;;20.33;;
12328;SDS011;6230;52.390;10.256;2023-02-15T03:15:28;30.97;;;19.87;;
12328;SDS011;6230;52.390;10.256;2023-02-15T03:18:19;39.80;;;20.93;;
12328;SDS011;6230;52.390;10.256;2023-02-15T03:20:47;29.83;;;19.60;;
12328;SDS011;6230;52.390;10.256;2023-02-15T03:23:16;30.43;;;20.47;;
12328;SDS011;6230;52.390;10.256;2023-02-15T03:25:48;29.20;;;19.93;;
12328;SDS011;6230;52.390;10.256;2023-02-15T03:31:06;30.30;;;21.50;;
12328;SDS011;6230;52.390;10.256;2023-02-15T03:33:35;27.20;;;20.40;;
12328;SDS011;6230;52.390;10.256;2023-02-15T03:36:09;28.13;;;20.33;;
12328;SDS011;6230;52.390;10.256;2023-02-15T03:38:52;30.00;;;21.43;;
12328;SDS011;6230;52.390;10.256;2023-02-15T03:41:25;26.03;;;19.17;;
12328;SDS011;6230;52.390;10.256;2023-02-15T03:43:57;29.03;;;20.03;;
12328;SDS011;6230;52.390;10.256;2023-02-15T03:46:34;29.57;;;19.83;;
12328;SDS011;6230;52.390;10.256;2023-02-15T03:49:08;25.87;;;19.43;;
12328;SDS011;6230;52.390;10.256;2023-02-15T03:51:46;26.90;;;19.60;;
12328;SDS011;6230;52.390;10.256;2023-02-15T03:57:04;24.97;;;18.50;;
12328;SDS011;6230;52.390;10.256;2023-02-15T03:59:52;25.63;;;19.43;;
12328;SDS011;6230;52.390;10.256;2023-02-15T04:03:22;26.33;;;19.03;;
12328;SDS011;6230;52.390;10.256;2023-02-15T04:05:25;25.20;;;17.90;;
12328;SDS011;6230;52.390;10.256;2023-02-15T04:07:50;26.53;;;19.67;;
12328;SDS011;6230;52.390;10.256;2023-02-15T04:10:16;28.03;;;18.13;;
12328;SDS011;6230;52.390;10.256;2023-02-15T04:13:00;26.20;;;18.50;;
12328;SDS011;6230;52.390;10.256;2023-02-15T04:15:26;24.17;;;17.97;;
12328;SDS011;6230;52.390;10.256;2023-02-15T04:18:10;23.23;;;16.77;;
12328;SDS011;6230;52.390;10.256;2023-02-15T04:20:35;22.83;;;17.73;;
12328;SDS011;6230;52.390;10.256;2023-02-15T04:23:19;24.03;;;17.20;;
12328;SDS011;6230;52.390;10.256;2023-02-15T04:26:04;22.40;;;17.30;;
12328;SDS011;6230;52.390;10.256;2023-02-15T04:28:29;25.80;;;17.57;;
12328;SDS011;6230;52.390;10.256;2023-02-15T04:30:55;21.63;;;17.07;;
12328;SDS011;6230;52.390;10.256;2023-02-15T04:33:21;20.50;;;15.83;;
12328;SDS011;6230;52.390;10.256;2023-02-15T04:35:46;21.90;;;16.67;;
12328;SDS011;6230;52.390;10.256;2023-02-15T04:38:12;23.73;;;17.03;;
12328;SDS011;6230;52.390;10.256;2023-02-15T04:40:37;22.30;;;16.20;;
12328;SDS011;6230;52.390;10.256;2023-02-15T04:43:03;23.83;;;16.43;;
12328;SDS011;6230;52.390;10.256;2023-02-15T04:45:28;26.33;;;17.07;;
12328;SDS011;6230;52.390;10.256;2023-02-15T04:47:54;23.93;;;17.10;;
12328;SDS011;6230;52.390;10.256;2023-02-15T04:50:20;25.03;;;17.07;;
12328;SDS011;6230;52.390;10.256;2023-02-15T04:52:46;22.37;;;16.63;;
12328;SDS011;6230;52.390;10.256;2023-02-15T04:55:11;21.47;;;16.60;;
12328;SDS011;6230;52.390;10.256;2023-02-15T04:57:37;21.80;;;16.27;;
12328;SDS011;6230;52.390;10.256;2023-02-15T05:00:03;20.47;;;16.10;;
12328;SDS011;6230;52.390;10.256;2023-02-15T05:02:29;22.20;;;16.50;;
12328;SDS011;6230;52.390;10.256;2023-02-15T05:04:54;21.13;;;15.97;;
12328;SDS011;6230;52.390;10.256;2023-02-15T05:07:20;21.90;;;16.87;;
12328;SDS011;6230;52.390;10.256;2023-02-15T05:09:45;22.37;;;16.90;;
12328;SDS011;6230;52.390;10.256;2023-02-15T05:12:11;22.33;;;17.00;;
12328;SDS011;6230;52.390;10.256;2023-02-15T05:14:36;22.03;;;16.67;;
12328;SDS011;6230;52.390;10.256;2023-02-15T05:17:02;21.10;;;16.20;;
12328;SDS011;6230;52.390;10.256;2023-02-15T05:19:30;21.93;;;16.07;;
12328;SDS011;6230;52.390;10.256;2023-02-15T05:21:55;20.07;;;15.13;;
12328;SDS011;6230;52.390;10.256;2023-02-15T05:24:21;22.10;;;16.87;;
12328;SDS011;6230;52.390;10.256;2023-02-15T05:27:05;20.83;;;15.43;;
12328;SDS011;6230;52.390;10.256;2023-02-15T05:29:50;20.83;;;15.93;;
12328;SDS011;6230;52.390;10.256;2023-02-15T05:32:15;20.23;;;15.73;;
12328;SDS011;6230;52.390;10.256;2023-02-15T05:34:41;20.43;;;16.13;;
12328;SDS011;6230;52.390;10.256;2023-02-15T05:37:06;23.60;;;16.33;;
12328;SDS011;6230;52.390;10.256;2023-02-15T05:39:32;20.50;;;15.23;;
12328;SDS011;6230;52.390;10.256;2023-02-15T05:42:01;21.17;;;16.00;;
12328;SDS011;6230;52.390;10.256;2023-02-15T05:44:27;19.63;;;15.70;;
12328;SDS011;6230;52.390;10.256;2023-02-15T05:46:52;19.37;;;15.90;;
12328;SDS011;6230;52.390;10.256;2023-02-15T05:49:18;18.23;;;14.47;;
12328;SDS011;6230;52.390;10.256;2023-02-15T05:51:43;21.47;;;15.53;;
12328;SDS011;6230;52.390;10.256;2023-02-15T05:54:09;20.43;;;15.03;;
12328;SDS011;6230;52.390;10.256;2023-02-15T05:56:34;19.90;;;14.97;;
12328;SDS011;6230;52.390;10.256;2023-02-15T05:59:00;19.53;;;15.50;;
12328;SDS011;6230;52.390;10.256;2023-02-15T06:01:25;19.87;;;15.07;;
12328;SDS011;6230;52.390;10.256;2023-02-15T06:03:51;19.67;;;15.77;;
12328;SDS011;6230;52.390;10.256;2023-02-15T06:06:17;18.33;;;14.63;;
12328;SDS011;6230;52.390;10.256;2023-02-15T06:08:42;19.90;;;14.30;;
12328;SDS011;6230;52.390;10.256;2023-02-15T06:11:08;18.57;;;14.67;;
12328;SDS011;6230;52.390;10.256;2023-02-15T06:13:34;18.53;;;14.33;;
12328;SDS011;6230;52.390;10.256;2023-02-15T06:16:00;20.10;;;14.67;;
12328;SDS011;6230;52.390;10.256;2023-02-15T06:18:26;19.97;;;14.77;;
12328;SDS011;6230;52.390;10.256;2023-02-15T06:20:51;23.70;;;17.17;;
12328;SDS011;6230;52.390;10.256;2023-02-15T06:23:17;21.57;;;16.07;;
12328;SDS011;6230;52.390;10.256;2023-02-15T06:25:44;21.53;;;16.00;;
12328;SDS011;6230;52.390;10.256;2023-02-15T06:28:10;20.17;;;15.17;;
12328;SDS011;6230;52.390;10.256;2023-02-15T06:30:36;22.70;;;15.90;;
12328;SDS011;6230;52.390;10.256;2023-02-15T06:33:02;26.40;;;17.67;;
12328;SDS011;6230;52.390;10.256;2023-02-15T06:35:27;25.70;;;17.63;;
12328;SDS011;6230;52.390;10.256;2023-02-15T06:37:53;26.90;;;18.07;;
12328;SDS011;6230;52.390;10.256;2023-02-15T06:40:18;22.97;;;16.93;;
12328;SDS011;6230;52.390;10.256;2023-02-15T06:42:44;21.13;;;16.73;;
12328;SDS011;6230;52.390;10.256;2023-02-15T06:45:09;20.67;;;16.40;;
12328;SDS011;6230;52.390;10.256;2023-02-15T06:47:35;23.03;;;17.20;;
12328;SDS011;6230;52.390;10.256;2023-02-15T06:50:02;22.70;;;16.87;;
12328;SDS011;6230;52.390;10.256;2023-02-15T06:52:31;21.97;;;17.23;;
12328;SDS011;6230;52.390;10.256;2023-02-15T06:54:57;19.63;;;15.60;;
12328;SDS011;6230;52.390;10.256;2023-02-15T06:57:22;20.93;;;15.90;;
12328;SDS011;6230;52.390;10.256;2023-02-15T06:59:48;22.63;;;16.23;;
12328;SDS011;6230;52.390;10.256;2023-02-15T07:02:13;23.53;;;17.20;;
12328;SDS011;6230;52.390;10.256;2023-02-15T07:04:39;22.27;;;16.93;;
12328;SDS011;6230;52.390;10.256;2023-02-15T07:07:07;23.83;;;17.60;;
12328;SDS011;6230;52.390;10.256;2023-02-15T07:09:34;23.30;;;17.87;;
12328;SDS011;6230;52.390;10.256;2023-02-15T07:11:59;24.60;;;18.93;;
12328;SDS011;6230;52.390;10.256;2023-02-15T07:14:43;28.60;;;20.33;;
12328;SDS011;6230;52.390;10.256;2023-02-15T07:17:09;35.10;;;24.90;;
12328;SDS011;6230;52.390;10.256;2023-02-15T07:19:34;40.50;;;25.57;;
12328;SDS011;6230;52.390;10.256;2023-02-15T07:22:00;37.30;;;25.50;;
12328;SDS011;6230;52.390;10.256;2023-02-15T07:24:25;32.83;;;22.97;;
12328;SDS011;6230;52.390;10.256;2023-02-15T07:26:51;28.67;;;20.77;;
12328;SDS011;6230;52.390;10.256;2023-02-15T07:29:17;27.57;;;20.40;;
12328;SDS011;6230;52.390;10.256;2023-02-15T07:31:42;27.17;;;20.70;;
12328;SDS011;6230;52.390;10.256;2023-02-15T07:34:10;34.30;;;25.43;;
12328;SDS011;6230;52.390;10.256;2023-02-15T07:36:36;36.33;;;27.57;;
12328;SDS011;6230;52.390;10.256;2023-02-15T07:39:01;32.90;;;25.17;;
12328;SDS011;6230;52.390;10.256;2023-02-15T07:41:27;37.57;;;26.27;;
12328;SDS011;6230;52.390;10.256;2023-02-15T07:43:53;36.07;;;25.00;;
12328;SDS011;6230;52.390;10.256;2023-02-15T07:46:18;24.63;;;18.70;;
12328;SDS011;6230;52.390;10.256;2023-02-15T07:48:45;22.93;;;17.77;;
12328;SDS011;6230;52.390;10.256;2023-02-15T07:51:11;23.60;;;18.53;;
12328;SDS011;6230;52.390;10.256;2023-02-15T07:53:39;23.97;;;18.67;;
12328;SDS011;6230;52.390;10.256;2023-02-15T07:56:06;22.33;;;17.50;;
12328;SDS011;6230;52.390;10.256;2023-02-15T07:58:34;23.13;;;18.20;;
12328;SDS011;6230;52.390;10.256;2023-02-15T08:01:26;26.83;;;19.73;;
12328;SDS011;6230;52.390;10.256;2023-02-15T08:03:54;31.40;;;23.20;;
12328;SDS011;6230;52.390;10.256;2023-02-15T08:06:22;26.00;;;18.53;;
12328;SDS011;6230;52.390;10.256;2023-02-15T08:08:49;24.83;;;17.63;;
12328;SDS011;6230;52.390;10.256;2023-02-15T08:11:16;26.67;;;19.70;;
12328;SDS011;6230;52.390;10.256;2023-02-15T08:14:11;26.23;;;19.17;;
12328;SDS011;6230;52.390;10.256;2023-02-15T08:21:48;25.60;;;20.20;;
12328;SDS011;6230;52.390;10.256;2023-02-15T08:24:16;24.60;;;19.80;;
12328;SDS011;6230;52.390;10.256;2023-02-15T08:26:43;25.77;;;19.40;;
12328;SDS011;6230;52.390;10.256;2023-02-15T08:29:11;29.03;;;19.70;;
12328;SDS011;6230;52.390;10.256;2023-02-15T08:31:37;27.20;;;19.77;;
12328;SDS011;6230;52.390;10.256;2023-02-15T08:34:05;23.47;;;18.83;;
12328;SDS011;6230;52.390;10.256;2023-02-15T08:36:31;26.77;;;19.90;;
12328;SDS011;6230;52.390;10.256;2023-02-15T08:38:57;25.70;;;18.03;;
12328;SDS011;6230;52.390;10.256;2023-02-15T08:41:25;25.63;;;18.27;;
12328;SDS011;6230;52.390;10.256;2023-02-15T08:43:53;24.97;;;18.00;;
12328;SDS011;6230;52.390;10.256;2023-02-15T08:46:21;24.70;;;17.67;;
12328;SDS011;6230;52.390;10.256;2023-02-15T08:48:48;24.37;;;18.30;;
12328;SDS011;6230;52.390;10.256;2023-02-15T08:51:18;21.90;;;17.87;;
12328;SDS011;6230;52.390;10.256;2023-02-15T08:53:52;23.20;;;17.97;;
12328;SDS011;6230;52.390;10.256;2023-02-15T08:56:20;25.03;;;18.27;;
12328;SDS011;6230;52.390;10.256;2023-02-15T08:58:49;20.73;;;16.57;;
12328;SDS011;6230;52.390;10.256;2023-02-15T09:01:16;23.03;;;17.40;;
12328;SDS011;6230;52.390;10.256;2023-02-15T09:03:45;22.67;;;17.07;;
12328;SDS011;6230;52.390;10.256;2023-02-15T09:06:11;24.20;;;16.67;;
12328;SDS011;6230;52.390;10.256;2023-02-15T09:08:37;21.23;;;16.53;;
12328;SDS011;6230;52.390;10.256;2023-02-15T09:11:10;23.57;;;17.43;;
12328;SDS011;6230;52.390;10.256;2023-02-15T09:13:47;20.67;;;16.87;;
12328;SDS011;6230;52.390;10.256;2023-02-15T09:16:13;22.60;;;16.87;;
12328;SDS011;6230;52.390;10.256;2023-02-15T09:18:38;24.23;;;16.90;;
12328;SDS011;6230;52.390;10.256;2023-02-15T09:21:23;21.63;;;16.07;;
12328;SDS011;6230;52.390;10.256;2023-02-15T09:23:51;21.17;;;15.97;;
12328;SDS011;6230;52.390;10.256;2023-02-15T09:26:20;19.67;;;15.53;;
12328;SDS011;6230;52.390;10.256;2023-02-15T09:28:47;18.10;;;14.10;;
12328;SDS011;6230;52.390;10.256;2023-02-15T09:31:18;20.23;;;15.00;;
12328;SDS011;6230;52.390;10.256;2023-02-15T09:33:45;21.37;;;15.53;;
12328;SDS011;6230;52.390;10.256;2023-02-15T09:36:16;17.63;;;14.13;;
12328;SDS011;6230;52.390;10.256;2023-02-15T09:39:09;16.63;;;13.30;;
12328;SDS011;6230;52.390;10.256;2023-02-15T09:41:44;15.33;;;12.63;;
12328;SDS011;6230;52.390;10.256;2023-02-15T09:47:12;16.63;;;13.20;;
12328;SDS011;6230;52.390;10.256;2023-02-15T09:50:07;15.00;;;11.67;;
12328;SDS011;6230;52.390;10.256;2023-02-15T09:52:53;14.43;;;11.37;;
12328;SDS011;6230;52.390;10.256;2023-02-15T10:00:46;13.97;;;11.43;;
12328;SDS011;6230;52.390;10.256;2023-02-15T10:03:56;12.33;;;10.90;;
12328;SDS011;6230;52.390;10.256;2023-02-15T10:06:56;12.50;;;11.20;;
12328;SDS011;6230;52.390;10.256;2023-02-15T10:09:47;12.17;;;10.23;;
12328;SDS011;6230;52.390;10.256;2023-02-15T10:12:32;12.07;;;10.00;;
12328;SDS011;6230;52.390;10.256;2023-02-15T10:20:49;10.80;;;9.57;;
12328;SDS011;6230;52.390;10.256;2023-02-15T10:23:28;12.73;;;9.67;;
12328;SDS011;6230;52.390;10.256;2023-02-15T10:28:32;13.27;;;9.43;;
12328;SDS011;6230;52.390;10.256;2023-02-15T10:31:27;10.20;;;8.93;;
12328;SDS011;6230;52.390;10.256;2023-02-15T10:34:34;10.33;;;9.07;;
12328;SDS011;6230;52.390;10.256;2023-02-15T10:43:19;9.23;;;8.03;;
12328;SDS011;6230;52.390;10.256;2023-02-15T10:46:03;8.63;;;7.33;;
12328;SDS011;6230;52.390;10.256;2023-02-15T10:48:37;37.27;;;29.30;;
12328;SDS011;6230;52.390;10.256;2023-02-15T10:54:44;7.67;;;6.80;;
12328;SDS011;6230;52.390;10.256;2023-02-15T11:05:45;8.70;;;7.80;;
12328;SDS011;6230;52.390;10.256;2023-02-15T11:08:22;8.87;;;7.60;;
12328;SDS011;6230;52.390;10.256;2023-02-15T11:10:55;9.63;;;8.57;;
12328;SDS011;6230;52.390;10.256;2023-02-15T11:13:27;9.47;;;8.07;;
12328;SDS011;6230;52.390;10.256;2023-02-15T11:24:18;9.77;;;8.20;;
12328;SDS011;6230;52.390;10.256;2023-02-15T11:27:15;9.90;;;8.87;;
12328;SDS011;6230;52.390;10.256;2023-02-15T11:35:02;10.47;;;8.87;;
12328;SDS011;6230;52.390;10.256;2023-02-15T11:37:46;11.53;;;9.43;;
12328;SDS011;6230;52.390;10.256;2023-02-15T11:42:57;9.83;;;8.83;;
12328;SDS011;6230;52.390;10.256;2023-02-15T11:45:28;11.17;;;9.37;;
12328;SDS011;6230;52.390;10.256;2023-02-15T11:47:55;10.10;;;9.07;;
12328;SDS011;6230;52.390;10.256;2023-02-15T11:50:23;11.47;;;9.30;;
12328;SDS011;6230;52.390;10.256;2023-02-15T11:52:52;12.00;;;9.30;;
12328;SDS011;6230;52.390;10.256;2023-02-15T11:55:22;10.87;;;9.03;;
12328;SDS011;6230;52.390;10.256;2023-02-15T11:57:53;10.40;;;9.30;;
12328;SDS011;6230;52.390;10.256;2023-02-15T12:00:40;11.27;;;10.03;;
12328;SDS011;6230;52.390;10.256;2023-02-15T12:03:33;10.77;;;9.53;;
12328;SDS011;6230;52.390;10.256;2023-02-15T12:06:04;10.80;;;9.45;;
12328;SDS011;6230;52.390;10.256;2023-02-15T12:08:40;10.85;;;8.98;;
12328;SDS011;6230;52.390;10.256;2023-02-15T12:11:11;10.00;;;8.77;;
12328;SDS011;6230;52.390;10.256;2023-02-15T12:13:58;12.63;;;9.07;;
12328;SDS011;6230;52.390;10.256;2023-02-15T12:16:26;9.70;;;8.33;;
12328;SDS011;6230;52.390;10.256;2023-02-15T12:18:57;10.93;;;8.83;;
12328;SDS011;6230;52.390;10.256;2023-02-15T12:21:31;11.67;;;9.23;;
12328;SDS011;6230;52.390;10.256;2023-02-15T12:24:17;10.90;;;9.20;;
12328;SDS011;6230;52.390;10.256;2023-02-15T12:26:55;11.20;;;9.10;;
12328;SDS011;6230;52.390;10.256;2023-02-15T12:29:35;11.30;;;9.57;;
12328;SDS011;6230;52.390;10.256;2023-02-15T12:32:05;10.43;;;8.93;;
12328;SDS011;6230;52.390;10.256;2023-02-15T12:34:36;10.73;;;9.52;;
12328;SDS011;6230;52.390;10.256;2023-02-15T12:37:10;11.60;;;10.18;;
12328;SDS011;6230;52.390;10.256;2023-02-15T12:39:55;10.27;;;9.30;;
12328;SDS011;6230;52.390;10.256;2023-02-15T12:42:23;11.30;;;9.23;;
12328;SDS011;6230;52.390;10.256;2023-02-15T12:45:32;11.50;;;8.40;;
12328;SDS011;6230;52.390;10.256;2023-02-15T12:48:07;10.57;;;9.23;;
12328;SDS011;6230;52.390;10.256;2023-02-15T12:50:33;11.25;;;9.25;;
12328;SDS011;6230;52.390;10.256;2023-02-15T12:53:12;10.85;;;9.50;;
12328;SDS011;6230;52.390;10.256;2023-02-15T12:56:03;12.65;;;10.43;;
12328;SDS011;6230;52.390;10.256;2023-02-15T12:58:40;10.55;;;9.45;;
12328;SDS011;6230;52.390;10.256;2023-02-15T13:03:54;10.10;;;8.90;;
12328;SDS011;6230;52.390;10.256;2023-02-15T13:06:29;13.73;;;11.07;;
12328;SDS011;6230;52.390;10.256;2023-02-15T13:08:58;11.80;;;10.18;;
12328;SDS011;6230;52.390;10.256;2023-02-15T13:11:32;10.68;;;9.57;;
12328;SDS011;6230;52.390;10.256;2023-02-15T13:16:36;12.13;;;9.50;;
12328;SDS011;6230;52.390;10.256;2023-02-15T13:22:02;12.75;;;9.30;;
12328;SDS011;6230;52.390;10.256;2023-02-15T13:24:33;10.77;;;9.68;;
12328;SDS011;6230;52.390;10.256;2023-02-15T13:27:19;11.27;;;9.20;;
12328;SDS011;6230;52.390;10.256;2023-02-15T13:29:54;11.43;;;9.10;;
12328;SDS011;6230;52.390;10.256;2023-02-15T13:32:30;12.05;;;9.85;;
12328;SDS011;6230;52.390;10.256;2023-02-15T13:35:13;13.52;;;9.93;;
12328;SDS011;6230;52.390;10.256;2023-02-15T13:40:26;11.05;;;9.88;;
12328;SDS011;6230;52.390;10.256;2023-02-15T13:43:17;11.95;;;10.00;;
12328;SDS011;6230;52.390;10.256;2023-02-15T13:48:43;12.88;;;10.60;;
12328;SDS011;6230;52.390;10.256;2023-02-15T13:54:36;10.68;;;9.48;;
12328;SDS011;6230;52.390;10.256;2023-02-15T14:02:57;10.45;;;9.48;;
12328;SDS011;6230;52.390;10.256;2023-02-15T14:08:21;12.13;;;9.57;;
12328;SDS011;6230;52.390;10.256;2023-02-15T14:16:41;10.05;;;8.95;;
12328;SDS011;6230;52.390;10.256;2023-02-15T14:24:59;9.10;;;8.23;;
12328;SDS011;6230;52.390;10.256;2023-02-15T14:27:38;10.13;;;9.13;;
12328;SDS011;6230;52.390;10.256;2023-02-15T14:30:12;10.95;;;9.35;;
12328;SDS011;6230;52.390;10.256;2023-02-15T14:32:42;10.02;;;9.02;;
12328;SDS011;6230;52.390;10.256;2023-02-15T14:35:18;11.07;;;9.98;;
12328;SDS011;6230;52.390;10.256;2023-02-15T14:49:08;12.23;;;9.03;;
12328;SDS011;6230;52.390;10.256;2023-02-15T14:54:10;10.27;;;8.80;;
12328;SDS011;6230;52.390;10.256;2023-02-15T14:59:27;10.93;;;9.13;;
12328;SDS011;6230;52.390;10.256;2023-02-15T15:07:07;14.70;;;9.50;;
12328;SDS011;6230;52.390;10.256;2023-02-15T15:09:33;10.77;;;9.30;;
12328;SDS011;6230;52.390;10.256;2023-02-15T15:14:46;11.80;;;9.57;;
12328;SDS011;6230;52.390;10.256;2023-02-15T15:19:57;12.93;;;10.30;;
12328;SDS011;6230;52.390;10.256;2023-02-15T15:22:38;11.50;;;10.07;;
12328;SDS011;6230;52.390;10.256;2023-02-15T15:28:09;11.53;;;9.10;;
12328;SDS011;6230;52.390;10.256;2023-02-15T15:31:00;11.00;;;9.73;;
12328;SDS011;6230;52.390;10.256;2023-02-15T15:36:23;10.77;;;9.63;;
12328;SDS011;6230;52.390;10.256;2023-02-15T15:41:43;10.70;;;9.47;;
12328;SDS011;6230;52.390;10.256;2023-02-15T15:50:10;13.13;;;10.30;;
12328;SDS011;6230;52.390;10.256;2023-02-15T15:52:38;12.70;;;9.93;;
12328;SDS011;6230;52.390;10.256;2023-02-15T15:55:17;11.50;;;9.93;;
12328;SDS011;6230;52.390;10.256;2023-02-15T15:57:45;10.70;;;9.43;;
12328;SDS011;6230;52.390;10.256;2023-02-15T16:00:34;12.40;;;9.90;;
12328;SDS011;6230;52.390;10.256;2023-02-15T16:03:03;10.07;;;8.97;;
12328;SDS011;6230;52.390;10.256;2023-02-15T16:05:36;11.10;;;9.60;;
12328;SDS011;6230;52.390;10.256;2023-02-15T16:08:03;11.73;;;10.47;;
12328;SDS011;6230;52.390;10.256;2023-02-15T16:10:29;12.47;;;10.60;;
12328;SDS011;6230;52.390;10.256;2023-02-15T16:12:57;11.40;;;10.20;;
12328;SDS011;6230;52.390;10.256;2023-02-15T16:15:24;12.67;;;10.10;;
12328;SDS011;6230;52.390;10.256;2023-02-15T16:17:55;12.00;;;10.53;;
12328;SDS011;6230;52.390;10.256;2023-02-15T16:20:24;11.50;;;9.87;;
12328;SDS011;6230;52.390;10.256;2023-02-15T16:23:04;13.93;;;12.37;;
12328;SDS011;6230;52.390;10.256;2023-02-15T16:28:34;13.93;;;11.53;;
12328;SDS011;6230;52.390;10.256;2023-02-15T16:31:07;14.67;;;11.47;;
12328;SDS011;6230;52.390;10.256;2023-02-15T16:33:38;13.63;;;10.37;;
12328;SDS011;6230;52.390;10.256;2023-02-15T16:36:05;16.40;;;11.27;;
12328;SDS011;6230;52.390;10.256;2023-02-15T16:41:09;18.23;;;14.60;;
12328;SDS011;6230;52.390;10.256;2023-02-15T16:43:46;18.57;;;14.90;;
12328;SDS011;6230;52.390;10.256;2023-02-15T16:46:16;16.37;;;13.17;;
12328;SDS011;6230;52.390;10.256;2023-02-15T16:48:50;19.30;;;15.00;;
12328;SDS011;6230;52.390;10.256;2023-02-15T16:51:30;19.10;;;16.33;;
12328;SDS011;6230;52.390;10.256;2023-02-15T16:54:00;17.67;;;15.63;;
12328;SDS011;6230;52.390;10.256;2023-02-15T16:56:31;16.50;;;14.50;;
12328;SDS011;6230;52.390;10.256;2023-02-15T16:58:58;19.53;;;16.60;;
12328;SDS011;6230;52.390;10.256;2023-02-15T17:01:25;22.23;;;18.73;;
12328;SDS011;6230;52.390;10.256;2023-02-15T17:04:14;21.00;;;17.40;;
12328;SDS011;6230;52.390;10.256;2023-02-15T17:07:20;22.17;;;18.00;;
12328;SDS011;6230;52.390;10.256;2023-02-15T17:09:54;22.13;;;18.13;;
12328;SDS011;6230;52.390;10.256;2023-02-15T17:15:35;20.37;;;16.07;;
12328;SDS011;6230;52.390;10.256;2023-02-15T17:18:04;20.23;;;17.20;;
12328;SDS011;6230;52.390;10.256;2023-02-15T17:20:40;18.60;;;15.30;;
12328;SDS011;6230;52.390;10.256;2023-02-15T17:23:17;16.97;;;13.83;;
12328;SDS011;6230;52.390;10.256;2023-02-15T17:26:00;18.17;;;14.77;;
12328;SDS011;6230;52.390;10.256;2023-02-15T17:28:36;21.10;;;17.27;;
12328;SDS011;6230;52.390;10.256;2023-02-15T17:31:05;16.23;;;13.67;;
12328;SDS011;6230;52.390;10.256;2023-02-15T17:36:06;19.17;;;15.27;;
12328;SDS011;6230;52.390;10.256;2023-02-15T17:38:35;22.93;;;16.20;;
12328;SDS011;6230;52.390;10.256;2023-02-15T17:41:01;20.13;;;15.40;;
12328;SDS011;6230;52.390;10.256;2023-02-15T17:43:27;20.97;;;15.30;;